»·PEaware :: N5209V KTLV-KRNO

N5209V :: KTLV-KRNO

FLIGHT INFORMATION

Flight Status: Arrived
Operator: Privately registered:
United States
More flights under this callsign
Pilot: Justin B. (110)
Aircraft: Unknown
(M20J)
More flights by this aircraft type
Origin: KTLV
Destination: KRNO Reno/Tahoe Intl
United States
More flights between these airports :: More routes between these airports
Route: shole1 shole FMG
File this flight plan on PilotEdge
Remarks:
Altitude:
(Current/Filed)
5,000ft
Speed:
(Current/Filed)
160kts
Departed: 27-Jan-11 08:00 PM
Arrived: 27-Jan-11 08:34 PM
Distance/Time
Traveled:
Not Available
Distance/Time
To Go:
Arrived

Flight Plot

Page will automatically refresh every two minutes.

Flight plan parsing failed; only flown route is shown


Map Options




Map Legend


Flown Route
Filed Route
Departure Airport
Arrival Airport
Navaid (VOR, NDB)
Fix

Horizontal Profiles

Position Reports

Time Latitude Longitude Heading Altitude Ground
Speed
27-Jan-11 19:17 38.892226 -119.998079 340 6267ft 0kts
27-Jan-11 19:18 38.892226 -119.998079 340 6267ft 0kts
27-Jan-11 19:19 38.892226 -119.998079 340 6267ft 0kts
27-Jan-11 19:20 38.892226 -119.998079 340 6267ft 0kts
27-Jan-11 19:21 38.892226 -119.998079 340 6267ft 0kts
27-Jan-11 19:22 38.892226 -119.998079 340 6267ft 0kts
27-Jan-11 19:23 38.892226 -119.998079 340 6267ft 0kts
27-Jan-11 19:24 38.892226 -119.998079 340 6267ft 0kts
27-Jan-11 19:25 38.892226 -119.998079 340 6267ft 0kts
27-Jan-11 19:26 38.892226 -119.998079 340 6267ft 0kts
27-Jan-11 19:27 38.892226 -119.998079 340 6267ft 0kts
27-Jan-11 19:28 38.892310 -119.998122 338 6267ft 0kts
27-Jan-11 19:29 38.892310 -119.998122 338 6267ft 0kts
27-Jan-11 19:30 38.892310 -119.998122 338 6267ft 0kts
27-Jan-11 19:31 38.892310 -119.998122 338 6267ft 0kts
27-Jan-11 19:32 38.892310 -119.998122 338 6267ft 0kts
27-Jan-11 19:33 38.892310 -119.998122 338 6267ft 0kts
27-Jan-11 19:34 38.892310 -119.998122 338 6267ft 0kts
27-Jan-11 19:35 38.892310 -119.998122 338 6267ft 0kts
27-Jan-11 19:36 38.892310 -119.998122 338 6267ft 0kts
27-Jan-11 19:37 38.892310 -119.998122 338 6267ft 0kts
27-Jan-11 19:38 38.892310 -119.998122 338 6267ft 0kts
27-Jan-11 19:39 38.892310 -119.998122 338 6267ft 0kts
27-Jan-11 19:40 38.892310 -119.998122 338 6267ft 0kts
27-Jan-11 19:41 38.892310 -119.998122 338 6267ft 0kts
27-Jan-11 19:42 38.892310 -119.998122 338 6267ft 0kts
27-Jan-11 19:43 38.892310 -119.998122 338 6267ft 0kts
27-Jan-11 19:44 38.892310 -119.998122 338 6267ft 0kts
27-Jan-11 19:45 38.892310 -119.998122 338 6267ft 0kts
27-Jan-11 19:46 38.892310 -119.998122 338 6267ft 0kts
27-Jan-11 19:47 38.892310 -119.998122 338 6267ft 0kts
27-Jan-11 19:48 38.892310 -119.998122 338 6267ft 0kts
27-Jan-11 19:49 38.892301 -119.997099 111 6267ft 11kts
27-Jan-11 19:50 38.885951 -119.998749 192 6267ft 30kts
27-Jan-11 19:51 38.882659 -119.999334 91 6267ft 0kts
27-Jan-11 19:52 38.882659 -119.999334 91 6267ft 0kts
27-Jan-11 19:53 38.882659 -119.999334 91 6267ft 0kts
27-Jan-11 19:54 38.882659 -119.999334 91 6267ft 0kts
27-Jan-11 19:55 38.882659 -119.999334 91 6267ft 0kts
27-Jan-11 19:56 38.882658 -119.999145 91 6267ft 7kts
27-Jan-11 19:57 38.883852 -119.998268 6 6267ft 0kts
27-Jan-11 19:58 38.883852 -119.998268 6 6267ft 0kts
27-Jan-11 19:59 38.887363 -119.997218 14 6267ft 69kts
27-Jan-11 20:00 38.914880 -119.990671 8 6912ft 117kts
27-Jan-11 20:01 38.947856 -119.986581 11 7916ft 122kts
27-Jan-11 20:02 38.978305 -119.979390 10 8864ft 116kts
27-Jan-11 20:03 39.008793 -119.975198 7 9854ft 103kts
27-Jan-11 20:04 39.039045 -119.970247 7 10627ft 112kts
27-Jan-11 20:05 39.070785 -119.966002 6 11422ft 117kts
27-Jan-11 20:06 39.101144 -119.972568 347 12337ft 112kts
27-Jan-11 20:07 39.133185 -119.976742 31 12824ft 142kts
27-Jan-11 20:08 39.110128 -119.951094 175 12978ft 167kts
27-Jan-11 20:09 39.063221 -119.941955 168 13000ft 169kts
27-Jan-11 20:10 39.044762 -119.982785 314 13066ft 167kts
27-Jan-11 20:11 39.087671 -119.970495 26 13042ft 174kts
27-Jan-11 20:12 39.142685 -119.932286 36 12826ft 184kts
27-Jan-11 20:13 39.185796 -119.904932 17 13155ft 166kts
27-Jan-11 20:14 39.229466 -119.874713 35 12900ft 181kts
27-Jan-11 20:15 39.272377 -119.842105 32 12949ft 178kts
27-Jan-11 20:16 39.315264 -119.810223 26 12986ft 177kts
27-Jan-11 20:17 39.359278 -119.780843 25 12973ft 179kts
27-Jan-11 20:18 39.411144 -119.751328 22 11498ft 221kts
27-Jan-11 20:19 39.465563 -119.721287 34 10089ft 215kts
27-Jan-11 20:20 39.510985 -119.682510 31 9868ft 170kts
27-Jan-11 20:21 39.536799 -119.642953 82 9987ft 141kts
27-Jan-11 20:22 39.546057 -119.596409 81 10028ft 132kts
27-Jan-11 20:23 39.549970 -119.546333 118 10085ft 150kts
27-Jan-11 20:24 39.532376 -119.491565 87 9716ft 177kts
27-Jan-11 20:25 39.570460 -119.483928 264 9417ft 176kts
27-Jan-11 20:26 39.556491 -119.547469 248 8678ft 189kts
27-Jan-11 20:27 39.540293 -119.607854 255 8006ft 147kts
27-Jan-11 20:28 39.532418 -119.653769 252 7722ft 113kts
27-Jan-11 20:29 39.524171 -119.690683 249 7091ft 104kts
27-Jan-11 20:30 39.516801 -119.726370 276 6321ft 96kts
27-Jan-11 20:31 39.536797 -119.740107 256 5976ft 104kts
27-Jan-11 20:32 39.527164 -119.766750 172 5113ft 101kts
27-Jan-11 20:33 39.503535 -119.766741 179 4415ft 34kts
27-Jan-11 20:34 39.500870 -119.764883 266 4415ft 0kts
27-Jan-11 20:35 39.500870 -119.764883 266 4415ft 0kts
27-Jan-11 20:36 39.500870 -119.764883 266 4415ft 0kts
27-Jan-11 20:37 39.500870 -119.764883 266 4415ft 0kts
27-Jan-11 20:38 39.500870 -119.764883 266 4415ft 0kts
27-Jan-11 20:39 39.500870 -119.764883 266 4415ft 0kts
27-Jan-11 20:40 39.500870 -119.764883 266 4415ft 0kts
27-Jan-11 20:41 39.500870 -119.764883 266 4415ft 0kts
27-Jan-11 20:42 39.500870 -119.764883 266 4415ft 0kts
27-Jan-11 20:43 39.500870 -119.764883 266 4415ft 0kts
27-Jan-11 20:44 39.500870 -119.764883 266 4415ft 0kts
27-Jan-11 20:45 39.500870 -119.764883 266 4415ft 0kts
27-Jan-11 20:46 39.500870 -119.764883 266 4415ft 0kts
27-Jan-11 20:47 39.500870 -119.764883 266 4415ft 0kts

Navigation Log

Ident Type
Flight plan parsing failed, navigation log unavailable